sensor_id;sensor_type;location;lat;lon;timestamp;temperature;humidity
69009;SHT31;56065;52.472;13.380;2023-09-19T00:02:04;19.86;86.53
69009;SHT31;56065;52.472;13.380;2023-09-19T00:04:34;19.72;87.13
69009;SHT31;56065;52.472;13.380;2023-09-19T00:07:00;19.79;86.74
69009;SHT31;56065;52.472;13.380;2023-09-19T00:09:27;19.76;86.79
69009;SHT31;56065;52.472;13.380;2023-09-19T00:11:53;19.70;86.87
69009;SHT31;56065;52.472;13.380;2023-09-19T00:14:19;19.72;86.63
69009;SHT31;56065;52.472;13.380;2023-09-19T00:16:45;19.69;86.74
69009;SHT31;56065;52.472;13.380;2023-09-19T00:19:11;19.67;86.91
69009;SHT31;56065;52.472;13.380;2023-09-19T00:21:37;19.59;87.20
69009;SHT31;56065;52.472;13.380;2023-09-19T00:24:04;19.54;87.27
69009;SHT31;56065;52.472;13.380;2023-09-19T00:26:32;19.58;87.00
69009;SHT31;56065;52.472;13.380;2023-09-19T00:28:57;19.61;86.81
69009;SHT31;56065;52.472;13.380;2023-09-19T00:31:24;19.51;87.29
69009;SHT31;56065;52.472;13.380;2023-09-19T00:33:50;19.54;87.10
69009;SHT31;56065;52.472;13.380;2023-09-19T00:36:16;19.52;87.16
69009;SHT31;56065;52.472;13.380;2023-09-19T00:38:43;19.52;87.10
69009;SHT31;56065;52.472;13.380;2023-09-19T00:41:10;19.51;87.23
69009;SHT31;56065;52.472;13.380;2023-09-19T00:43:38;19.48;87.15
69009;SHT31;56065;52.472;13.380;2023-09-19T00:46:05;19.48;86.97
69009;SHT31;56065;52.472;13.380;2023-09-19T00:48:32;19.49;86.95
69009;SHT31;56065;52.472;13.380;2023-09-19T00:51:04;19.46;87.05
69009;SHT31;56065;52.472;13.380;2023-09-19T00:53:30;19.46;87.08
69009;SHT31;56065;52.472;13.380;2023-09-19T00:55:56;19.52;86.87
69009;SHT31;56065;52.472;13.380;2023-09-19T00:58:22;19.48;86.89
69009;SHT31;56065;52.472;13.380;2023-09-19T01:00:50;19.41;87.14
69009;SHT31;56065;52.472;13.380;2023-09-19T01:03:17;19.42;87.05
69009;SHT31;56065;52.472;13.380;2023-09-19T01:05:43;19.39;87.15
69009;SHT31;56065;52.472;13.380;2023-09-19T01:08:09;19.39;87.07
69009;SHT31;56065;52.472;13.380;2023-09-19T01:10:43;19.34;87.12
69009;SHT31;56065;52.472;13.380;2023-09-19T01:13:21;19.31;87.08
69009;SHT31;56065;52.472;13.380;2023-09-19T01:27:14;19.22;87.39
69009;SHT31;56065;52.472;13.380;2023-09-19T01:29:45;19.31;87.32
69009;SHT31;56065;52.472;13.380;2023-09-19T01:32:15;19.28;87.28
69009;SHT31;56065;52.472;13.380;2023-09-19T01:34:56;19.36;87.18
69009;SHT31;56065;52.472;13.380;2023-09-19T01:37:24;19.44;86.99
69009;SHT31;56065;52.472;13.380;2023-09-19T01:40:05;19.46;87.04
69009;SHT31;56065;52.472;13.380;2023-09-19T01:42:59;19.51;86.90
69009;SHT31;56065;52.472;13.380;2023-09-19T01:51:14;19.61;86.51
69009;SHT31;56065;52.472;13.380;2023-09-19T01:53:57;19.61;86.35
69009;SHT31;56065;52.472;13.380;2023-09-19T01:56:36;19.59;86.21
69009;SHT31;56065;52.472;13.380;2023-09-19T01:59:11;19.45;86.65
69009;SHT31;56065;52.472;13.380;2023-09-19T02:01:39;19.45;86.59
69009;SHT31;56065;52.472;13.380;2023-09-19T02:04:05;19.39;86.55
69009;SHT31;56065;52.472;13.380;2023-09-19T02:06:32;19.31;86.84
69009;SHT31;56065;52.472;13.380;2023-09-19T02:08:59;19.29;86.74
69009;SHT31;56065;52.472;13.380;2023-09-19T02:11:31;19.28;86.81
69009;SHT31;56065;52.472;13.380;2023-09-19T02:13:56;19.21;87.00
69009;SHT31;56065;52.472;13.380;2023-09-19T02:16:22;19.14;87.23
69009;SHT31;56065;52.472;13.380;2023-09-19T02:18:48;19.12;87.17
69009;SHT31;56065;52.472;13.380;2023-09-19T02:21:15;19.11;87.15
69009;SHT31;56065;52.472;13.380;2023-09-19T02:23:45;19.08;87.48
69009;SHT31;56065;52.472;13.380;2023-09-19T02:26:12;19.07;87.50
69009;SHT31;56065;52.472;13.380;2023-09-19T02:28:39;19.08;87.33
69009;SHT31;56065;52.472;13.380;2023-09-19T02:31:04;19.07;87.56
69009;SHT31;56065;52.472;13.380;2023-09-19T02:33:32;19.03;87.71
69009;SHT31;56065;52.472;13.380;2023-09-19T02:35:58;19.00;87.97
69009;SHT31;56065;52.472;13.380;2023-09-19T02:38:25;19.00;87.92
69009;SHT31;56065;52.472;13.380;2023-09-19T02:40:52;18.97;88.15
69009;SHT31;56065;52.472;13.380;2023-09-19T02:43:18;19.01;87.84
69009;SHT31;56065;52.472;13.380;2023-09-19T02:45:45;19.00;87.97
69009;SHT31;56065;52.472;13.380;2023-09-19T02:48:11;19.00;88.01
69009;SHT31;56065;52.472;13.380;2023-09-19T02:50:37;18.97;88.17
69009;SHT31;56065;52.472;13.380;2023-09-19T02:53:03;19.04;87.93
69009;SHT31;56065;52.472;13.380;2023-09-19T02:55:29;19.01;87.83
69009;SHT31;56065;52.472;13.380;2023-09-19T02:57:55;19.00;87.99
69009;SHT31;56065;52.472;13.380;2023-09-19T03:00:21;18.98;88.09
69009;SHT31;56065;52.472;13.380;2023-09-19T03:02:48;19.04;87.95
69009;SHT31;56065;52.472;13.380;2023-09-19T03:05:14;19.01;88.02
69009;SHT31;56065;52.472;13.380;2023-09-19T03:07:40;19.04;87.92
69009;SHT31;56065;52.472;13.380;2023-09-19T03:10:08;19.03;87.86
69009;SHT31;56065;52.472;13.380;2023-09-19T03:12:34;19.03;87.88
69009;SHT31;56065;52.472;13.380;2023-09-19T03:15:00;19.05;87.66
69009;SHT31;56065;52.472;13.380;2023-09-19T03:17:25;19.07;87.51
69009;SHT31;56065;52.472;13.380;2023-09-19T03:19:51;19.04;87.52
69009;SHT31;56065;52.472;13.380;2023-09-19T03:22:16;19.04;87.36
69009;SHT31;56065;52.472;13.380;2023-09-19T03:24:43;18.97;87.34
69009;SHT31;56065;52.472;13.380;2023-09-19T03:27:12;19.05;87.08
69009;SHT31;56065;52.472;13.380;2023-09-19T03:29:41;19.04;87.07
69009;SHT31;56065;52.472;13.380;2023-09-19T03:32:07;19.04;86.92
69009;SHT31;56065;52.472;13.380;2023-09-19T03:34:36;18.98;86.97
69009;SHT31;56065;52.472;13.380;2023-09-19T03:37:03;18.87;87.13
69009;SHT31;56065;52.472;13.380;2023-09-19T03:39:29;18.90;87.10
69009;SHT31;56065;52.472;13.380;2023-09-19T03:41:54;18.90;87.14
69009;SHT31;56065;52.472;13.380;2023-09-19T03:44:19;18.87;87.04
69009;SHT31;56065;52.472;13.380;2023-09-19T03:46:45;18.83;87.07
69009;SHT31;56065;52.472;13.380;2023-09-19T03:49:10;18.83;87.11
69009;SHT31;56065;52.472;13.380;2023-09-19T03:51:35;18.81;87.06
69009;SHT31;56065;52.472;13.380;2023-09-19T03:54:02;18.80;87.06
69009;SHT31;56065;52.472;13.380;2023-09-19T03:56:29;18.73;87.02
69009;SHT31;56065;52.472;13.380;2023-09-19T03:58:54;18.70;86.33
69009;SHT31;56065;52.472;13.380;2023-09-19T04:01:20;18.70;86.00
69009;SHT31;56065;52.472;13.380;2023-09-19T04:03:45;18.73;85.89
69009;SHT31;56065;52.472;13.380;2023-09-19T04:06:13;18.66;85.52
69009;SHT31;56065;52.472;13.380;2023-09-19T04:08:39;18.68;85.26
69009;SHT31;56065;52.472;13.380;2023-09-19T04:11:05;18.64;84.65
69009;SHT31;56065;52.472;13.380;2023-09-19T04:13:30;18.67;84.24
69009;SHT31;56065;52.472;13.380;2023-09-19T04:15:55;18.68;84.35
69009;SHT31;56065;52.472;13.380;2023-09-19T04:18:21;18.68;83.77
69009;SHT31;56065;52.472;13.380;2023-09-19T04:20:49;18.67;83.87
69009;SHT31;56065;52.472;13.380;2023-09-19T04:23:15;18.68;83.88
69009;SHT31;56065;52.472;13.380;2023-09-19T04:25:41;18.67;83.52
69009;SHT31;56065;52.472;13.380;2023-09-19T04:28:06;18.64;83.78
69009;SHT31;56065;52.472;13.380;2023-09-19T04:30:32;18.68;83.93
69009;SHT31;56065;52.472;13.380;2023-09-19T04:32:57;18.66;83.57
69009;SHT31;56065;52.472;13.380;2023-09-19T04:35:22;18.63;83.88
69009;SHT31;56065;52.472;13.380;2023-09-19T04:37:48;18.63;83.75
69009;SHT31;56065;52.472;13.380;2023-09-19T04:40:13;18.60;83.70
69009;SHT31;56065;52.472;13.380;2023-09-19T04:42:45;18.59;83.78
69009;SHT31;56065;52.472;13.380;2023-09-19T04:45:11;18.53;83.51
69009;SHT31;56065;52.472;13.380;2023-09-19T04:47:40;18.56;83.38
69009;SHT31;56065;52.472;13.380;2023-09-19T04:50:07;18.53;83.25
69009;SHT31;56065;52.472;13.380;2023-09-19T04:52:33;18.46;83.12
69009;SHT31;56065;52.472;13.380;2023-09-19T04:54:58;18.50;83.28
69009;SHT31;56065;52.472;13.380;2023-09-19T04:57:24;18.45;83.25
69009;SHT31;56065;52.472;13.380;2023-09-19T04:59:51;18.37;83.19
69009;SHT31;56065;52.472;13.380;2023-09-19T05:02:16;18.47;83.34
69009;SHT31;56065;52.472;13.380;2023-09-19T05:04:41;18.47;83.12
69009;SHT31;56065;52.472;13.380;2023-09-19T05:07:07;18.46;83.00
69009;SHT31;56065;52.472;13.380;2023-09-19T05:09:32;18.45;82.70
69009;SHT31;56065;52.472;13.380;2023-09-19T05:12:00;18.36;82.68
69009;SHT31;56065;52.472;13.380;2023-09-19T05:14:25;18.46;82.81
69009;SHT31;56065;52.472;13.380;2023-09-19T05:16:51;18.49;82.71
69009;SHT31;56065;52.472;13.380;2023-09-19T05:19:16;18.50;82.65
69009;SHT31;56065;52.472;13.380;2023-09-19T05:21:42;18.40;82.34
69009;SHT31;56065;52.472;13.380;2023-09-19T05:24:07;18.47;82.16
69009;SHT31;56065;52.472;13.380;2023-09-19T05:26:37;18.42;81.96
69009;SHT31;56065;52.472;13.380;2023-09-19T05:29:03;18.52;82.08
69009;SHT31;56065;52.472;13.380;2023-09-19T05:31:30;18.55;81.97
69009;SHT31;56065;52.472;13.380;2023-09-19T05:33:56;18.57;81.99
69009;SHT31;56065;52.472;13.380;2023-09-19T05:36:21;18.53;81.82
69009;SHT31;56065;52.472;13.380;2023-09-19T05:38:46;18.60;81.77
69009;SHT31;56065;52.472;13.380;2023-09-19T05:41:18;18.57;81.59
69009;SHT31;56065;52.472;13.380;2023-09-19T05:43:43;18.59;81.46
69009;SHT31;56065;52.472;13.380;2023-09-19T05:46:09;18.70;81.41
69009;SHT31;56065;52.472;13.380;2023-09-19T05:48:34;18.84;81.10
69009;SHT31;56065;52.472;13.380;2023-09-19T05:51:00;18.95;80.77
69009;SHT31;56065;52.472;13.380;2023-09-19T05:53:26;19.04;80.44
69009;SHT31;56065;52.472;13.380;2023-09-19T05:55:51;19.19;80.43
69009;SHT31;56065;52.472;13.380;2023-09-19T05:58:18;19.22;79.82
69009;SHT31;56065;52.472;13.380;2023-09-19T06:00:45;19.44;79.59
69009;SHT31;56065;52.472;13.380;2023-09-19T06:03:12;19.63;78.68
69009;SHT31;56065;52.472;13.380;2023-09-19T06:05:39;19.86;78.42
69009;SHT31;56065;52.472;13.380;2023-09-19T06:08:07;20.10;78.07
69009;SHT31;56065;52.472;13.380;2023-09-19T06:10:35;20.21;77.59
69009;SHT31;56065;52.472;13.380;2023-09-19T06:13:04;20.27;77.27
69009;SHT31;56065;52.472;13.380;2023-09-19T06:15:30;20.57;76.74
69009;SHT31;56065;52.472;13.380;2023-09-19T06:17:58;20.85;75.95
69009;SHT31;56065;52.472;13.380;2023-09-19T06:20:25;21.25;75.41
69009;SHT31;56065;52.472;13.380;2023-09-19T06:22:52;21.57;74.51
69009;SHT31;56065;52.472;13.380;2023-09-19T06:25:18;21.73;73.96
69009;SHT31;56065;52.472;13.380;2023-09-19T06:27:53;22.05;73.44
69009;SHT31;56065;52.472;13.380;2023-09-19T06:30:21;22.44;73.11
69009;SHT31;56065;52.472;13.380;2023-09-19T06:32:48;22.76;71.18
69009;SHT31;56065;52.472;13.380;2023-09-19T06:35:15;23.11;70.94
69009;SHT31;56065;52.472;13.380;2023-09-19T06:37:42;23.84;70.27
69009;SHT31;56065;52.472;13.380;2023-09-19T06:40:09;24.53;68.62
69009;SHT31;56065;52.472;13.380;2023-09-19T06:42:41;25.12;66.81
69009;SHT31;56065;52.472;13.380;2023-09-19T06:45:08;25.50;65.20
69009;SHT31;56065;52.472;13.380;2023-09-19T06:47:33;25.98;64.86
69009;SHT31;56065;52.472;13.380;2023-09-19T06:49:58;26.03;63.75
69009;SHT31;56065;52.472;13.380;2023-09-19T06:52:24;26.28;64.07
69009;SHT31;56065;52.472;13.380;2023-09-19T06:54:53;26.74;63.00
69009;SHT31;56065;52.472;13.380;2023-09-19T06:57:18;26.95;62.71
69009;SHT31;56065;52.472;13.380;2023-09-19T06:59:45;27.67;61.34
69009;SHT31;56065;52.472;13.380;2023-09-19T07:02:10;29.07;59.92
69009;SHT31;56065;52.472;13.380;2023-09-19T07:04:35;29.45;56.79
69009;SHT31;56065;52.472;13.380;2023-09-19T07:07:01;30.91;55.85
69009;SHT31;56065;52.472;13.380;2023-09-19T07:09:26;31.58;54.58
69009;SHT31;56065;52.472;13.380;2023-09-19T07:11:53;32.47;54.38
69009;SHT31;56065;52.472;13.380;2023-09-19T07:14:19;32.86;52.88
69009;SHT31;56065;52.472;13.380;2023-09-19T07:16:44;32.54;51.37
69009;SHT31;56065;52.472;13.380;2023-09-19T07:19:10;31.67;51.79
69009;SHT31;56065;52.472;13.380;2023-09-19T07:21:35;31.32;52.86
69009;SHT31;56065;52.472;13.380;2023-09-19T07:24:01;31.72;53.16
69009;SHT31;56065;52.472;13.380;2023-09-19T07:26:27;31.15;52.90
69009;SHT31;56065;52.472;13.380;2023-09-19T07:28:53;31.21;52.65
69009;SHT31;56065;52.472;13.380;2023-09-19T07:31:18;30.33;52.66
69009;SHT31;56065;52.472;13.380;2023-09-19T07:33:44;29.95;53.94
69009;SHT31;56065;52.472;13.380;2023-09-19T07:36:10;29.34;54.78
69009;SHT31;56065;52.472;13.380;2023-09-19T07:38:39;29.90;54.57
69009;SHT31;56065;52.472;13.380;2023-09-19T07:41:04;30.98;52.86
69009;SHT31;56065;52.472;13.380;2023-09-19T07:43:30;31.19;51.88
69009;SHT31;56065;52.472;13.380;2023-09-19T07:45:56;30.57;52.46
69009;SHT31;56065;52.472;13.380;2023-09-19T07:48:22;29.35;53.63
69009;SHT31;56065;52.472;13.380;2023-09-19T07:50:48;28.53;54.85
69009;SHT31;56065;52.472;13.380;2023-09-19T07:53:14;28.73;55.25
69009;SHT31;56065;52.472;13.380;2023-09-19T07:55:40;29.08;54.77
69009;SHT31;56065;52.472;13.380;2023-09-19T07:58:06;29.66;54.51
69009;SHT31;56065;52.472;13.380;2023-09-19T08:00:32;30.23;53.12
69009;SHT31;56065;52.472;13.380;2023-09-19T08:03:00;30.02;52.93
69009;SHT31;56065;52.472;13.380;2023-09-19T08:05:26;29.96;52.60
69009;SHT31;56065;52.472;13.380;2023-09-19T08:07:51;30.06;52.92
69009;SHT31;56065;52.472;13.380;2023-09-19T08:10:17;29.51;53.28
69009;SHT31;56065;52.472;13.380;2023-09-19T08:12:45;29.02;54.02
69009;SHT31;56065;52.472;13.380;2023-09-19T08:15:19;30.16;52.64
69009;SHT31;56065;52.472;13.380;2023-09-19T08:17:45;31.21;50.94
69009;SHT31;56065;52.472;13.380;2023-09-19T08:20:11;30.52;50.56
69009;SHT31;56065;52.472;13.380;2023-09-19T08:22:47;29.35;51.57
69009;SHT31;56065;52.472;13.380;2023-09-19T08:25:13;28.01;53.24
69009;SHT31;56065;52.472;13.380;2023-09-19T08:27:39;27.19;54.89
69009;SHT31;56065;52.472;13.380;2023-09-19T08:30:04;26.44;56.05
69009;SHT31;56065;52.472;13.380;2023-09-19T08:32:31;26.38;56.50
69009;SHT31;56065;52.472;13.380;2023-09-19T08:34:56;26.62;56.32
69009;SHT31;56065;52.472;13.380;2023-09-19T08:37:22;27.16;56.28
69009;SHT31;56065;52.472;13.380;2023-09-19T08:39:47;28.63;54.33
69009;SHT31;56065;52.472;13.380;2023-09-19T08:42:13;30.44;53.00
69009;SHT31;56065;52.472;13.380;2023-09-19T08:44:38;31.14;50.44
69009;SHT31;56065;52.472;13.380;2023-09-19T08:47:15;31.07;50.19
69009;SHT31;56065;52.472;13.380;2023-09-19T08:49:58;31.83;49.31
69009;SHT31;56065;52.472;13.380;2023-09-19T08:52:31;32.76;47.64
69009;SHT31;56065;52.472;13.380;2023-09-19T08:55:01;32.62;47.45
69009;SHT31;56065;52.472;13.380;2023-09-19T08:57:33;33.56;47.58
69009;SHT31;56065;52.472;13.380;2023-09-19T09:00:01;32.06;46.79
69009;SHT31;56065;52.472;13.380;2023-09-19T09:02:27;30.96;48.32
69009;SHT31;56065;52.472;13.380;2023-09-19T09:04:53;29.96;49.85
69009;SHT31;56065;52.472;13.380;2023-09-19T09:07:20;30.44;50.35
69009;SHT31;56065;52.472;13.380;2023-09-19T09:09:46;32.10;49.24
69009;SHT31;56065;52.472;13.380;2023-09-19T09:12:13;33.11;46.73
69009;SHT31;56065;52.472;13.380;2023-09-19T09:17:04;31.46;47.29
69009;SHT31;56065;52.472;13.380;2023-09-19T09:19:30;31.10;47.94
69009;SHT31;56065;52.472;13.380;2023-09-19T09:22:06;32.07;47.53
69009;SHT31;56065;52.472;13.380;2023-09-19T09:24:32;32.30;46.83
69009;SHT31;56065;52.472;13.380;2023-09-19T09:26:59;32.07;46.78
69009;SHT31;56065;52.472;13.380;2023-09-19T09:29:46;32.54;46.44
69009;SHT31;56065;52.472;13.380;2023-09-19T09:37:17;32.21;46.21
69009;SHT31;56065;52.472;13.380;2023-09-19T09:42:35;30.61;47.14
69009;SHT31;56065;52.472;13.380;2023-09-19T09:45:13;29.71;48.16
69009;SHT31;56065;52.472;13.380;2023-09-19T09:47:42;30.44;48.54
69009;SHT31;56065;52.472;13.380;2023-09-19T09:50:32;30.57;47.90
69009;SHT31;56065;52.472;13.380;2023-09-19T09:53:03;32.03;47.05
69009;SHT31;56065;52.472;13.380;2023-09-19T09:55:58;33.11;44.74
69009;SHT31;56065;52.472;13.380;2023-09-19T09:58:25;30.80;45.91
69009;SHT31;56065;52.472;13.380;2023-09-19T10:00:57;30.87;46.65
69009;SHT31;56065;52.472;13.380;2023-09-19T10:03:37;30.81;46.21
69009;SHT31;56065;52.472;13.380;2023-09-19T10:06:14;30.22;46.73
69009;SHT31;56065;52.472;13.380;2023-09-19T10:11:47;29.92;48.66
69009;SHT31;56065;52.472;13.380;2023-09-19T10:14:17;31.56;46.95
69009;SHT31;56065;52.472;13.380;2023-09-19T10:16:49;32.60;44.67
69009;SHT31;56065;52.472;13.380;2023-09-19T10:19:28;33.83;43.57
69009;SHT31;56065;52.472;13.380;2023-09-19T10:21:55;34.53;42.81
69009;SHT31;56065;52.472;13.380;2023-09-19T10:24:22;34.56;43.07
69009;SHT31;56065;52.472;13.380;2023-09-19T10:26:50;34.45;41.53
69009;SHT31;56065;52.472;13.380;2023-09-19T10:29:17;35.49;41.22
69009;SHT31;56065;52.472;13.380;2023-09-19T10:31:44;36.56;40.81
69009;SHT31;56065;52.472;13.380;2023-09-19T10:34:14;36.33;39.82
69009;SHT31;56065;52.472;13.380;2023-09-19T10:36:44;36.63;39.66
69009;SHT31;56065;52.472;13.380;2023-09-19T10:39:11;37.42;38.01
69009;SHT31;56065;52.472;13.380;2023-09-19T10:41:39;37.79;38.72
69009;SHT31;56065;52.472;13.380;2023-09-19T10:44:05;37.99;39.06
69009;SHT31;56065;52.472;13.380;2023-09-19T10:46:32;37.82;38.60
69009;SHT31;56065;52.472;13.380;2023-09-19T10:48:59;37.21;38.61
69009;SHT31;56065;52.472;13.380;2023-09-19T10:51:29;35.21;38.63
69009;SHT31;56065;52.472;13.380;2023-09-19T10:54:02;33.30;40.11
69009;SHT31;56065;52.472;13.380;2023-09-19T10:56:35;32.31;41.73
69009;SHT31;56065;52.472;13.380;2023-09-19T10:59:06;32.02;41.85
69009;SHT31;56065;52.472;13.380;2023-09-19T11:01:45;32.16;42.39
69009;SHT31;56065;52.472;13.380;2023-09-19T11:04:29;33.42;41.84
69009;SHT31;56065;52.472;13.380;2023-09-19T11:09:50;32.94;40.78
69009;SHT31;56065;52.472;13.380;2023-09-19T11:26:48;32.07;41.30
69009;SHT31;56065;52.472;13.380;2023-09-19T11:29:26;32.07;42.31
69009;SHT31;56065;52.472;13.380;2023-09-19T11:31:52;31.83;42.43
69009;SHT31;56065;52.472;13.380;2023-09-19T11:37:01;31.66;43.03
69009;SHT31;56065;52.472;13.380;2023-09-19T11:39:30;32.55;42.68
69009;SHT31;56065;52.472;13.380;2023-09-19T11:41:56;33.29;41.86
69009;SHT31;56065;52.472;13.380;2023-09-19T11:44:32;33.06;41.24
69009;SHT31;56065;52.472;13.380;2023-09-19T11:47:00;33.08;41.52
69009;SHT31;56065;52.472;13.380;2023-09-19T11:49:30;31.84;41.43
69009;SHT31;56065;52.472;13.380;2023-09-19T11:51:57;31.75;42.15
69009;SHT31;56065;52.472;13.380;2023-09-19T11:54:27;32.04;41.42
69009;SHT31;56065;52.472;13.380;2023-09-19T11:56:58;31.77;41.75
69009;SHT31;56065;52.472;13.380;2023-09-19T11:59:29;32.04;42.09
69009;SHT31;56065;52.472;13.380;2023-09-19T12:02:04;32.33;41.79
69009;SHT31;56065;52.472;13.380;2023-09-19T12:06:58;32.37;41.33
69009;SHT31;56065;52.472;13.380;2023-09-19T12:09:24;31.87;41.41
69009;SHT31;56065;52.472;13.380;2023-09-19T12:11:50;30.95;41.47
69009;SHT31;56065;52.472;13.380;2023-09-19T12:14:23;30.78;42.36
69009;SHT31;56065;52.472;13.380;2023-09-19T12:16:54;30.80;42.69
69009;SHT31;56065;52.472;13.380;2023-09-19T12:19:21;30.36;42.75
69009;SHT31;56065;52.472;13.380;2023-09-19T12:21:58;30.54;43.06
69009;SHT31;56065;52.472;13.380;2023-09-19T12:24:27;30.33;42.83
69009;SHT31;56065;52.472;13.380;2023-09-19T12:27:00;29.90;43.05
69009;SHT31;56065;52.472;13.380;2023-09-19T12:29:30;30.05;43.06
69009;SHT31;56065;52.472;13.380;2023-09-19T12:31:57;29.99;42.82
69009;SHT31;56065;52.472;13.380;2023-09-19T12:34:23;29.64;43.34
69009;SHT31;56065;52.472;13.380;2023-09-19T12:37:13;29.89;43.29
69009;SHT31;56065;52.472;13.380;2023-09-19T12:39:48;29.85;43.41
69009;SHT31;56065;52.472;13.380;2023-09-19T12:42:15;30.10;43.81
69009;SHT31;56065;52.472;13.380;2023-09-19T12:44:45;29.79;43.41
69009;SHT31;56065;52.472;13.380;2023-09-19T12:47:18;29.61;43.57
69009;SHT31;56065;52.472;13.380;2023-09-19T12:52:37;29.08;44.56
69009;SHT31;56065;52.472;13.380;2023-09-19T12:55:03;28.84;44.54
69009;SHT31;56065;52.472;13.380;2023-09-19T12:57:30;28.70;44.32
69009;SHT31;56065;52.472;13.380;2023-09-19T12:59:57;28.42;45.07
69009;SHT31;56065;52.472;13.380;2023-09-19T13:02:23;28.25;45.77
69009;SHT31;56065;52.472;13.380;2023-09-19T13:04:53;27.91;45.70
69009;SHT31;56065;52.472;13.380;2023-09-19T13:07:41;27.64;46.12
69009;SHT31;56065;52.472;13.380;2023-09-19T13:10:10;27.43;46.40
69009;SHT31;56065;52.472;13.380;2023-09-19T13:12:37;27.16;47.08
69009;SHT31;56065;52.472;13.380;2023-09-19T13:15:14;26.76;47.59
69009;SHT31;56065;52.472;13.380;2023-09-19T13:17:48;26.62;48.05
69009;SHT31;56065;52.472;13.380;2023-09-19T13:20:24;26.65;47.62
69009;SHT31;56065;52.472;13.380;2023-09-19T13:22:57;26.72;47.72
69009;SHT31;56065;52.472;13.380;2023-09-19T13:25:33;26.84;48.05
69009;SHT31;56065;52.472;13.380;2023-09-19T13:28:00;26.85;47.49
69009;SHT31;56065;52.472;13.380;2023-09-19T13:30:29;26.81;47.59
69009;SHT31;56065;52.472;13.380;2023-09-19T13:33:07;26.78;47.97
69009;SHT31;56065;52.472;13.380;2023-09-19T13:35:34;26.81;47.97
69009;SHT31;56065;52.472;13.380;2023-09-19T13:38:01;26.76;48.16
69009;SHT31;56065;52.472;13.380;2023-09-19T13:40:27;26.58;47.94
69009;SHT31;56065;52.472;13.380;2023-09-19T13:42:55;26.65;48.44
69009;SHT31;56065;52.472;13.380;2023-09-19T13:45:21;26.64;48.73
69009;SHT31;56065;52.472;13.380;2023-09-19T13:47:49;26.76;48.59
69009;SHT31;56065;52.472;13.380;2023-09-19T13:50:15;26.67;48.35
69009;SHT31;56065;52.472;13.380;2023-09-19T13:52:42;26.59;48.16
69009;SHT31;56065;52.472;13.380;2023-09-19T13:55:08;26.56;48.35
69009;SHT31;56065;52.472;13.380;2023-09-19T13:57:33;26.41;48.60
69009;SHT31;56065;52.472;13.380;2023-09-19T13:59:58;26.34;48.24
69009;SHT31;56065;52.472;13.380;2023-09-19T14:02:24;26.01;48.60
69009;SHT31;56065;52.472;13.380;2023-09-19T14:04:50;25.86;49.10
69009;SHT31;56065;52.472;13.380;2023-09-19T14:07:16;25.89;48.98
69009;SHT31;56065;52.472;13.380;2023-09-19T14:09:43;25.90;49.15
69009;SHT31;56065;52.472;13.380;2023-09-19T14:12:09;25.46;49.52
69009;SHT31;56065;52.472;13.380;2023-09-19T14:14:34;25.38;49.89
69009;SHT31;56065;52.472;13.380;2023-09-19T14:17:00;25.41;50.02
69009;SHT31;56065;52.472;13.380;2023-09-19T14:19:26;25.45;49.98
69009;SHT31;56065;52.472;13.380;2023-09-19T14:21:52;25.35;50.24
69009;SHT31;56065;52.472;13.380;2023-09-19T14:24:21;25.47;50.17
69009;SHT31;56065;52.472;13.380;2023-09-19T14:26:46;25.47;50.33
69009;SHT31;56065;52.472;13.380;2023-09-19T14:29:12;25.52;50.24
69009;SHT31;56065;52.472;13.380;2023-09-19T14:31:38;25.39;50.24
69009;SHT31;56065;52.472;13.380;2023-09-19T14:34:07;25.39;50.38
69009;SHT31;56065;52.472;13.380;2023-09-19T14:36:35;25.38;50.45
69009;SHT31;56065;52.472;13.380;2023-09-19T14:39:00;25.35;50.73
69009;SHT31;56065;52.472;13.380;2023-09-19T14:41:25;25.28;50.69
69009;SHT31;56065;52.472;13.380;2023-09-19T14:43:52;25.32;50.74
69009;SHT31;56065;52.472;13.380;2023-09-19T14:46:17;25.41;50.80
69009;SHT31;56065;52.472;13.380;2023-09-19T14:48:43;25.25;50.65
69009;SHT31;56065;52.472;13.380;2023-09-19T14:51:09;25.16;50.29
69009;SHT31;56065;52.472;13.380;2023-09-19T14:53:35;24.85;50.45
69009;SHT31;56065;52.472;13.380;2023-09-19T14:56:04;24.80;50.67
69009;SHT31;56065;52.472;13.380;2023-09-19T14:58:32;24.54;50.84
69009;SHT31;56065;52.472;13.380;2023-09-19T15:01:16;24.52;51.14
69009;SHT31;56065;52.472;13.380;2023-09-19T15:03:42;24.25;51.08
69009;SHT31;56065;52.472;13.380;2023-09-19T15:06:11;24.25;51.33
69009;SHT31;56065;52.472;13.380;2023-09-19T15:08:40;24.25;51.36
69009;SHT31;56065;52.472;13.380;2023-09-19T15:11:06;24.22;51.34
69009;SHT31;56065;52.472;13.380;2023-09-19T15:13:32;24.30;51.55
69009;SHT31;56065;52.472;13.380;2023-09-19T15:16:06;24.15;51.35
69009;SHT31;56065;52.472;13.380;2023-09-19T15:18:34;24.17;51.51
69009;SHT31;56065;52.472;13.380;2023-09-19T15:21:06;24.22;51.28
69009;SHT31;56065;52.472;13.380;2023-09-19T15:23:32;24.17;51.80
69009;SHT31;56065;52.472;13.380;2023-09-19T15:26:00;24.20;51.90
69009;SHT31;56065;52.472;13.380;2023-09-19T15:28:26;24.17;51.90
69009;SHT31;56065;52.472;13.380;2023-09-19T15:31:03;24.12;51.96
69009;SHT31;56065;52.472;13.380;2023-09-19T15:33:30;24.04;52.02
69009;SHT31;56065;52.472;13.380;2023-09-19T15:38:28;23.98;52.26
69009;SHT31;56065;52.472;13.380;2023-09-19T15:40:53;23.85;52.53
69009;SHT31;56065;52.472;13.380;2023-09-19T15:43:19;23.86;52.57
69009;SHT31;56065;52.472;13.380;2023-09-19T15:45:46;23.84;52.67
69009;SHT31;56065;52.472;13.380;2023-09-19T15:48:13;23.79;52.90
69009;SHT31;56065;52.472;13.380;2023-09-19T15:50:38;23.76;53.00
69009;SHT31;56065;52.472;13.380;2023-09-19T15:53:07;23.66;53.17
69009;SHT31;56065;52.472;13.380;2023-09-19T15:55:38;23.71;53.18
69009;SHT31;56065;52.472;13.380;2023-09-19T15:58:05;23.66;53.42
69009;SHT31;56065;52.472;13.380;2023-09-19T16:00:32;23.51;53.61
69009;SHT31;56065;52.472;13.380;2023-09-19T16:03:00;23.58;53.74
69009;SHT31;56065;52.472;13.380;2023-09-19T16:05:26;23.51;53.94
69009;SHT31;56065;52.472;13.380;2023-09-19T16:07:52;23.62;53.92
69009;SHT31;56065;52.472;13.380;2023-09-19T16:10:17;23.75;53.77
69009;SHT31;56065;52.472;13.380;2023-09-19T16:12:43;23.82;53.73
69009;SHT31;56065;52.472;13.380;2023-09-19T16:15:08;23.74;53.42
69009;SHT31;56065;52.472;13.380;2023-09-19T16:17:39;23.53;53.48
69009;SHT31;56065;52.472;13.380;2023-09-19T16:20:05;23.30;53.87